sensor_id;sensor_type;location;lat;lon;timestamp;temperature;humidity
28767;DHT22;15921;52.034;20.650;2023-04-03T00:01:13;1.70;99.90
28767;DHT22;15921;52.034;20.650;2023-04-03T00:03:39;1.70;99.90
28767;DHT22;15921;52.034;20.650;2023-04-03T00:06:04;1.60;99.90
28767;DHT22;15921;52.034;20.650;2023-04-03T00:08:32;1.50;99.90
28767;DHT22;15921;52.034;20.650;2023-04-03T00:10:58;1.50;99.90
28767;DHT22;15921;52.034;20.650;2023-04-03T00:13:24;1.40;99.90
28767;DHT22;15921;52.034;20.650;2023-04-03T00:15:51;1.40;99.90
28767;DHT22;15921;52.034;20.650;2023-04-03T00:18:17;1.30;99.90
28767;DHT22;15921;52.034;20.650;2023-04-03T00:20:43;1.30;99.90
28767;DHT22;15921;52.034;20.650;2023-04-03T00:23:09;1.30;99.90
28767;DHT22;15921;52.034;20.650;2023-04-03T00:25:35;1.30;99.90
28767;DHT22;15921;52.034;20.650;2023-04-03T00:28:02;1.20;99.90
28767;DHT22;15921;52.034;20.650;2023-04-03T00:30:28;1.20;99.90
28767;DHT22;15921;52.034;20.650;2023-04-03T00:32:54;1.10;99.90
28767;DHT22;15921;52.034;20.650;2023-04-03T00:35:20;1.10;99.90
28767;DHT22;15921;52.034;20.650;2023-04-03T00:37:46;1.00;99.90
28767;DHT22;15921;52.034;20.650;2023-04-03T00:40:14;1.00;99.90
28767;DHT22;15921;52.034;20.650;2023-04-03T00:42:42;0.90;99.90
28767;DHT22;15921;52.034;20.650;2023-04-03T00:45:32;0.90;99.90
28767;DHT22;15921;52.034;20.650;2023-04-03T00:48:00;0.90;99.90
28767;DHT22;15921;52.034;20.650;2023-04-03T00:50:28;0.90;99.90
28767;DHT22;15921;52.034;20.650;2023-04-03T00:52:55;0.90;99.90
28767;DHT22;15921;52.034;20.650;2023-04-03T00:55:22;0.80;99.90
28767;DHT22;15921;52.034;20.650;2023-04-03T00:57:49;0.80;99.90
28767;DHT22;15921;52.034;20.650;2023-04-03T01:00:17;0.80;99.90
28767;DHT22;15921;52.034;20.650;2023-04-03T01:02:44;0.80;99.90
28767;DHT22;15921;52.034;20.650;2023-04-03T01:05:10;0.80;99.90
28767;DHT22;15921;52.034;20.650;2023-04-03T01:07:37;0.90;99.90
28767;DHT22;15921;52.034;20.650;2023-04-03T01:10:08;0.90;99.90
28767;DHT22;15921;52.034;20.650;2023-04-03T01:12:38;0.90;99.90
28767;DHT22;15921;52.034;20.650;2023-04-03T01:25:56;0.70;99.90
28767;DHT22;15921;52.034;20.650;2023-04-03T01:28:25;0.60;99.90
28767;DHT22;15921;52.034;20.650;2023-04-03T01:31:00;0.60;99.90
28767;DHT22;15921;52.034;20.650;2023-04-03T01:33:27;0.50;99.90
28767;DHT22;15921;52.034;20.650;2023-04-03T01:35:53;0.50;99.90
28767;DHT22;15921;52.034;20.650;2023-04-03T01:38:18;0.40;99.90
28767;DHT22;15921;52.034;20.650;2023-04-03T01:40:44;0.40;99.90
28767;DHT22;15921;52.034;20.650;2023-04-03T01:43:10;0.40;99.90
28767;DHT22;15921;52.034;20.650;2023-04-03T01:45:36;0.40;99.90
28767;DHT22;15921;52.034;20.650;2023-04-03T01:48:02;0.40;99.90
28767;DHT22;15921;52.034;20.650;2023-04-03T01:50:28;0.30;99.90
28767;DHT22;15921;52.034;20.650;2023-04-03T01:52:53;0.30;99.90
28767;DHT22;15921;52.034;20.650;2023-04-03T01:55:19;0.30;99.90
28767;DHT22;15921;52.034;20.650;2023-04-03T01:57:45;0.30;99.90
28767;DHT22;15921;52.034;20.650;2023-04-03T02:00:11;0.30;99.90
28767;DHT22;15921;52.034;20.650;2023-04-03T02:02:37;0.20;99.90
28767;DHT22;15921;52.034;20.650;2023-04-03T02:05:03;0.20;99.90
28767;DHT22;15921;52.034;20.650;2023-04-03T02:07:29;0.10;99.90
28767;DHT22;15921;52.034;20.650;2023-04-03T02:09:54;0.10;99.90
28767;DHT22;15921;52.034;20.650;2023-04-03T02:12:20;0.00;99.90
28767;DHT22;15921;52.034;20.650;2023-04-03T02:14:46;0.00;99.90
28767;DHT22;15921;52.034;20.650;2023-04-03T02:17:12;-0.10;99.90
28767;DHT22;15921;52.034;20.650;2023-04-03T02:19:37;-0.10;99.90
28767;DHT22;15921;52.034;20.650;2023-04-03T02:22:04;-0.10;99.90
28767;DHT22;15921;52.034;20.650;2023-04-03T02:24:30;-0.20;99.90
28767;DHT22;15921;52.034;20.650;2023-04-03T02:26:56;-0.20;99.90
28767;DHT22;15921;52.034;20.650;2023-04-03T02:29:22;-0.20;99.90
28767;DHT22;15921;52.034;20.650;2023-04-03T02:31:49;-0.30;99.90
28767;DHT22;15921;52.034;20.650;2023-04-03T02:34:16;-0.30;99.90
28767;DHT22;15921;52.034;20.650;2023-04-03T02:36:41;-0.20;99.90
28767;DHT22;15921;52.034;20.650;2023-04-03T02:39:07;-0.30;99.90
28767;DHT22;15921;52.034;20.650;2023-04-03T02:41:33;-0.30;99.90
28767;DHT22;15921;52.034;20.650;2023-04-03T02:44:02;-0.30;99.90
28767;DHT22;15921;52.034;20.650;2023-04-03T02:46:28;-0.30;99.90
28767;DHT22;15921;52.034;20.650;2023-04-03T02:48:54;-0.40;99.90
28767;DHT22;15921;52.034;20.650;2023-04-03T02:51:20;-0.40;99.90
28767;DHT22;15921;52.034;20.650;2023-04-03T02:53:45;-0.50;99.90
28767;DHT22;15921;52.034;20.650;2023-04-03T02:56:11;-0.50;99.90
28767;DHT22;15921;52.034;20.650;2023-04-03T02:58:37;-0.50;99.90
28767;DHT22;15921;52.034;20.650;2023-04-03T03:01:03;-0.50;99.90
28767;DHT22;15921;52.034;20.650;2023-04-03T03:03:28;-0.60;99.90
28767;DHT22;15921;52.034;20.650;2023-04-03T03:06:08;-0.60;99.90
28767;DHT22;15921;52.034;20.650;2023-04-03T03:08:35;-0.60;99.90
28767;DHT22;15921;52.034;20.650;2023-04-03T03:11:01;-0.60;99.90
28767;DHT22;15921;52.034;20.650;2023-04-03T03:13:27;-0.70;99.90
28767;DHT22;15921;52.034;20.650;2023-04-03T03:15:53;-0.70;99.90
28767;DHT22;15921;52.034;20.650;2023-04-03T03:18:18;-0.70;99.90
28767;DHT22;15921;52.034;20.650;2023-04-03T03:20:44;-0.80;99.90
28767;DHT22;15921;52.034;20.650;2023-04-03T03:23:10;-0.70;99.90
28767;DHT22;15921;52.034;20.650;2023-04-03T03:25:40;-0.70;99.90
28767;DHT22;15921;52.034;20.650;2023-04-03T03:28:06;-0.80;99.90
28767;DHT22;15921;52.034;20.650;2023-04-03T03:30:32;-0.80;99.90
28767;DHT22;15921;52.034;20.650;2023-04-03T03:32:58;-0.90;99.90
28767;DHT22;15921;52.034;20.650;2023-04-03T03:35:24;-0.90;99.90
28767;DHT22;15921;52.034;20.650;2023-04-03T03:37:49;-0.90;99.90
28767;DHT22;15921;52.034;20.650;2023-04-03T03:40:15;-0.90;99.90
28767;DHT22;15921;52.034;20.650;2023-04-03T03:42:41;-1.00;99.90
28767;DHT22;15921;52.034;20.650;2023-04-03T03:45:07;-1.00;99.90
28767;DHT22;15921;52.034;20.650;2023-04-03T03:47:33;-1.00;99.90
28767;DHT22;15921;52.034;20.650;2023-04-03T03:49:59;-1.00;99.90
28767;DHT22;15921;52.034;20.650;2023-04-03T03:52:24;-1.00;99.90
28767;DHT22;15921;52.034;20.650;2023-04-03T03:54:50;-1.00;99.90
28767;DHT22;15921;52.034;20.650;2023-04-03T03:57:16;-1.10;99.90
28767;DHT22;15921;52.034;20.650;2023-04-03T03:59:42;-1.10;99.90
28767;DHT22;15921;52.034;20.650;2023-04-03T04:02:09;-1.10;99.90
28767;DHT22;15921;52.034;20.650;2023-04-03T04:04:36;-1.10;99.90
28767;DHT22;15921;52.034;20.650;2023-04-03T04:07:02;-1.10;99.90
28767;DHT22;15921;52.034;20.650;2023-04-03T04:09:28;-1.10;99.90
28767;DHT22;15921;52.034;20.650;2023-04-03T04:11:54;-1.10;99.90
28767;DHT22;15921;52.034;20.650;2023-04-03T04:14:19;-1.20;99.90
28767;DHT22;15921;52.034;20.650;2023-04-03T04:16:48;-1.10;99.90
28767;DHT22;15921;52.034;20.650;2023-04-03T04:19:14;-1.10;99.90
28767;DHT22;15921;52.034;20.650;2023-04-03T04:21:40;-1.10;99.90
28767;DHT22;15921;52.034;20.650;2023-04-03T04:24:07;-1.10;99.90
28767;DHT22;15921;52.034;20.650;2023-04-03T04:26:33;-1.20;99.90
28767;DHT22;15921;52.034;20.650;2023-04-03T04:28:59;-1.10;99.90
28767;DHT22;15921;52.034;20.650;2023-04-03T04:31:25;-1.10;99.90
28767;DHT22;15921;52.034;20.650;2023-04-03T04:33:52;-1.10;99.90
28767;DHT22;15921;52.034;20.650;2023-04-03T04:36:18;-1.10;99.90
28767;DHT22;15921;52.034;20.650;2023-04-03T04:38:44;-1.10;99.90
28767;DHT22;15921;52.034;20.650;2023-04-03T04:41:09;-1.10;99.90
28767;DHT22;15921;52.034;20.650;2023-04-03T04:43:35;-1.10;99.90
28767;DHT22;15921;52.034;20.650;2023-04-03T04:46:09;-1.10;99.90
28767;DHT22;15921;52.034;20.650;2023-04-03T04:48:37;-1.10;99.90
28767;DHT22;15921;52.034;20.650;2023-04-03T04:51:03;-1.10;99.90
28767;DHT22;15921;52.034;20.650;2023-04-03T04:53:29;-1.10;99.90
28767;DHT22;15921;52.034;20.650;2023-04-03T04:55:54;-1.10;99.90
28767;DHT22;15921;52.034;20.650;2023-04-03T04:58:20;-1.00;99.90
28767;DHT22;15921;52.034;20.650;2023-04-03T05:00:46;-1.00;99.90
28767;DHT22;15921;52.034;20.650;2023-04-03T05:03:12;-1.00;99.90
28767;DHT22;15921;52.034;20.650;2023-04-03T05:05:37;-0.90;99.90
28767;DHT22;15921;52.034;20.650;2023-04-03T05:08:03;-0.90;99.90
28767;DHT22;15921;52.034;20.650;2023-04-03T05:10:29;-0.80;99.90
28767;DHT22;15921;52.034;20.650;2023-04-03T05:12:55;-0.80;99.90
28767;DHT22;15921;52.034;20.650;2023-04-03T05:15:21;-0.70;99.90
28767;DHT22;15921;52.034;20.650;2023-04-03T05:17:47;-0.70;99.90
28767;DHT22;15921;52.034;20.650;2023-04-03T05:20:12;-0.60;99.90
28767;DHT22;15921;52.034;20.650;2023-04-03T05:22:38;-0.50;99.90
28767;DHT22;15921;52.034;20.650;2023-04-03T05:25:05;-0.50;99.90
28767;DHT22;15921;52.034;20.650;2023-04-03T05:27:30;-0.40;99.90
28767;DHT22;15921;52.034;20.650;2023-04-03T05:29:56;-0.30;99.90
28767;DHT22;15921;52.034;20.650;2023-04-03T05:32:23;-0.30;99.90
28767;DHT22;15921;52.034;20.650;2023-04-03T05:34:50;-0.30;99.90
28767;DHT22;15921;52.034;20.650;2023-04-03T05:37:16;-0.30;99.90
28767;DHT22;15921;52.034;20.650;2023-04-03T05:39:41;-0.20;99.90
28767;DHT22;15921;52.034;20.650;2023-04-03T05:42:07;-0.20;99.90
28767;DHT22;15921;52.034;20.650;2023-04-03T05:44:33;-0.10;99.90
28767;DHT22;15921;52.034;20.650;2023-04-03T05:46:59;0.00;99.90
28767;DHT22;15921;52.034;20.650;2023-04-03T05:49:25;0.10;99.90
28767;DHT22;15921;52.034;20.650;2023-04-03T05:51:50;0.10;99.90
28767;DHT22;15921;52.034;20.650;2023-04-03T05:54:29;0.20;99.90
28767;DHT22;15921;52.034;20.650;2023-04-03T05:56:55;0.20;99.90
28767;DHT22;15921;52.034;20.650;2023-04-03T05:59:21;0.30;99.90
28767;DHT22;15921;52.034;20.650;2023-04-03T06:01:47;0.30;99.90
28767;DHT22;15921;52.034;20.650;2023-04-03T06:04:14;0.30;99.90
28767;DHT22;15921;52.034;20.650;2023-04-03T06:06:51;0.30;99.90
28767;DHT22;15921;52.034;20.650;2023-04-03T06:09:19;0.40;99.90
28767;DHT22;15921;52.034;20.650;2023-04-03T06:11:45;0.50;99.90
28767;DHT22;15921;52.034;20.650;2023-04-03T06:14:11;0.50;99.90
28767;DHT22;15921;52.034;20.650;2023-04-03T06:16:37;0.60;99.90
28767;DHT22;15921;52.034;20.650;2023-04-03T06:19:05;0.60;99.90
28767;DHT22;15921;52.034;20.650;2023-04-03T06:21:31;0.60;99.90
28767;DHT22;15921;52.034;20.650;2023-04-03T06:23:57;0.60;99.90
28767;DHT22;15921;52.034;20.650;2023-04-03T06:26:23;0.60;99.90
28767;DHT22;15921;52.034;20.650;2023-04-03T06:28:49;0.60;99.90
28767;DHT22;15921;52.034;20.650;2023-04-03T06:31:14;0.70;99.90
28767;DHT22;15921;52.034;20.650;2023-04-03T06:33:40;0.70;99.90
28767;DHT22;15921;52.034;20.650;2023-04-03T06:36:07;0.70;99.90
28767;DHT22;15921;52.034;20.650;2023-04-03T06:38:33;0.80;99.90
28767;DHT22;15921;52.034;20.650;2023-04-03T06:40:59;0.80;99.90
28767;DHT22;15921;52.034;20.650;2023-04-03T06:43:25;0.80;99.90
28767;DHT22;15921;52.034;20.650;2023-04-03T06:45:51;0.90;99.90
28767;DHT22;15921;52.034;20.650;2023-04-03T06:48:17;0.90;99.90
28767;DHT22;15921;52.034;20.650;2023-04-03T06:50:43;1.00;99.90
28767;DHT22;15921;52.034;20.650;2023-04-03T06:53:09;1.00;99.90
28767;DHT22;15921;52.034;20.650;2023-04-03T06:55:35;1.10;99.90
28767;DHT22;15921;52.034;20.650;2023-04-03T06:58:01;1.20;99.90
28767;DHT22;15921;52.034;20.650;2023-04-03T07:00:27;1.20;99.90
28767;DHT22;15921;52.034;20.650;2023-04-03T07:02:53;1.10;99.90
28767;DHT22;15921;52.034;20.650;2023-04-03T07:05:19;1.10;99.90
28767;DHT22;15921;52.034;20.650;2023-04-03T07:07:45;1.20;99.90
28767;DHT22;15921;52.034;20.650;2023-04-03T07:10:11;1.20;99.90
28767;DHT22;15921;52.034;20.650;2023-04-03T07:12:37;1.30;99.90
28767;DHT22;15921;52.034;20.650;2023-04-03T07:15:04;1.40;99.90
28767;DHT22;15921;52.034;20.650;2023-04-03T07:17:30;1.50;99.90
28767;DHT22;15921;52.034;20.650;2023-04-03T07:19:56;1.50;99.90
28767;DHT22;15921;52.034;20.650;2023-04-03T07:22:22;1.60;99.90
28767;DHT22;15921;52.034;20.650;2023-04-03T07:24:48;1.60;99.90
28767;DHT22;15921;52.034;20.650;2023-04-03T07:27:13;1.70;99.90
28767;DHT22;15921;52.034;20.650;2023-04-03T07:29:39;1.70;99.90
28767;DHT22;15921;52.034;20.650;2023-04-03T07:32:05;1.80;99.90
28767;DHT22;15921;52.034;20.650;2023-04-03T07:34:32;1.90;99.90
28767;DHT22;15921;52.034;20.650;2023-04-03T07:36:58;1.90;99.90
28767;DHT22;15921;52.034;20.650;2023-04-03T07:39:24;1.80;99.90
28767;DHT22;15921;52.034;20.650;2023-04-03T07:41:50;1.80;99.90
28767;DHT22;15921;52.034;20.650;2023-04-03T07:44:17;1.80;99.90
28767;DHT22;15921;52.034;20.650;2023-04-03T07:46:43;1.90;99.90
28767;DHT22;15921;52.034;20.650;2023-04-03T07:49:09;2.00;99.90
28767;DHT22;15921;52.034;20.650;2023-04-03T07:51:35;2.00;99.90
28767;DHT22;15921;52.034;20.650;2023-04-03T07:54:01;2.10;99.90
28767;DHT22;15921;52.034;20.650;2023-04-03T07:56:27;2.10;99.90
28767;DHT22;15921;52.034;20.650;2023-04-03T07:58:53;2.20;99.10
28767;DHT22;15921;52.034;20.650;2023-04-03T08:01:19;2.30;99.60
28767;DHT22;15921;52.034;20.650;2023-04-03T08:03:44;2.40;99.10
28767;DHT22;15921;52.034;20.650;2023-04-03T08:06:10;2.60;98.40
28767;DHT22;15921;52.034;20.650;2023-04-03T08:08:36;2.70;97.70
28767;DHT22;15921;52.034;20.650;2023-04-03T08:11:03;2.80;96.10
28767;DHT22;15921;52.034;20.650;2023-04-03T08:13:31;2.80;95.50
28767;DHT22;15921;52.034;20.650;2023-04-03T08:15:56;2.80;94.40
28767;DHT22;15921;52.034;20.650;2023-04-03T08:18:24;2.70;94.50
28767;DHT22;15921;52.034;20.650;2023-04-03T08:20:51;2.60;93.10
28767;DHT22;15921;52.034;20.650;2023-04-03T08:23:18;2.70;94.40
28767;DHT22;15921;52.034;20.650;2023-04-03T08:25:44;2.80;93.20
28767;DHT22;15921;52.034;20.650;2023-04-03T08:28:10;2.90;93.10
28767;DHT22;15921;52.034;20.650;2023-04-03T08:30:39;2.90;92.40
28767;DHT22;15921;52.034;20.650;2023-04-03T08:33:06;3.00;92.90
28767;DHT22;15921;52.034;20.650;2023-04-03T08:35:31;3.00;93.20
28767;DHT22;15921;52.034;20.650;2023-04-03T08:37:57;3.20;91.80
28767;DHT22;15921;52.034;20.650;2023-04-03T08:40:23;3.30;89.70
28767;DHT22;15921;52.034;20.650;2023-04-03T08:45:55;3.40;88.10
28767;DHT22;15921;52.034;20.650;2023-04-03T08:48:38;3.60;86.80
28767;DHT22;15921;52.034;20.650;2023-04-03T08:51:15;4.00;87.80
28767;DHT22;15921;52.034;20.650;2023-04-03T08:53:46;4.10;87.30
28767;DHT22;15921;52.034;20.650;2023-04-03T08:56:15;4.10;83.80
28767;DHT22;15921;52.034;20.650;2023-04-03T08:58:55;4.00;83.80
28767;DHT22;15921;52.034;20.650;2023-04-03T09:01:30;4.00;84.40
28767;DHT22;15921;52.034;20.650;2023-04-03T09:04:01;4.00;84.10
28767;DHT22;15921;52.034;20.650;2023-04-03T09:06:31;4.10;82.90
28767;DHT22;15921;52.034;20.650;2023-04-03T09:09:39;4.40;82.80
28767;DHT22;15921;52.034;20.650;2023-04-03T09:12:25;4.60;79.60
28767;DHT22;15921;52.034;20.650;2023-04-03T09:17:38;4.60;76.70
28767;DHT22;15921;52.034;20.650;2023-04-03T09:22:38;4.30;75.00
28767;DHT22;15921;52.034;20.650;2023-04-03T09:25:18;4.40;77.40
28767;DHT22;15921;52.034;20.650;2023-04-03T09:27:45;4.90;76.70
28767;DHT22;15921;52.034;20.650;2023-04-03T09:30:22;5.20;75.30
28767;DHT22;15921;52.034;20.650;2023-04-03T09:32:51;5.20;73.80
28767;DHT22;15921;52.034;20.650;2023-04-03T09:37:50;5.00;72.70
28767;DHT22;15921;52.034;20.650;2023-04-03T09:42:53;4.80;74.10
28767;DHT22;15921;52.034;20.650;2023-04-03T09:45:31;5.10;72.40
28767;DHT22;15921;52.034;20.650;2023-04-03T09:50:56;6.20;72.30
28767;DHT22;15921;52.034;20.650;2023-04-03T09:53:37;6.10;68.80
28767;DHT22;15921;52.034;20.650;2023-04-03T09:56:25;5.80;70.00
28767;DHT22;15921;52.034;20.650;2023-04-03T10:01:35;5.50;69.00
28767;DHT22;15921;52.034;20.650;2023-04-03T10:06:40;5.90;72.20
28767;DHT22;15921;52.034;20.650;2023-04-03T10:09:22;6.10;70.20
28767;DHT22;15921;52.034;20.650;2023-04-03T10:12:14;5.90;68.40
28767;DHT22;15921;52.034;20.650;2023-04-03T10:14:55;5.50;67.80
28767;DHT22;15921;52.034;20.650;2023-04-03T10:20:16;5.60;70.40
28767;DHT22;15921;52.034;20.650;2023-04-03T10:23:01;5.70;70.60
28767;DHT22;15921;52.034;20.650;2023-04-03T10:25:38;6.10;70.00
28767;DHT22;15921;52.034;20.650;2023-04-03T10:31:06;6.50;67.90
28767;DHT22;15921;52.034;20.650;2023-04-03T10:33:44;6.60;65.30
28767;DHT22;15921;52.034;20.650;2023-04-03T10:36:41;6.50;66.90
28767;DHT22;15921;52.034;20.650;2023-04-03T10:53:10;7.30;63.30
28767;DHT22;15921;52.034;20.650;2023-04-03T10:55:48;7.30;63.90
28767;DHT22;15921;52.034;20.650;2023-04-03T10:58:39;7.60;62.60
28767;DHT22;15921;52.034;20.650;2023-04-03T11:01:12;7.40;62.50
28767;DHT22;15921;52.034;20.650;2023-04-03T11:03:45;6.90;63.10
28767;DHT22;15921;52.034;20.650;2023-04-03T11:06:15;6.50;63.60
28767;DHT22;15921;52.034;20.650;2023-04-03T11:09:02;6.40;64.20
28767;DHT22;15921;52.034;20.650;2023-04-03T11:11:33;6.40;64.70
28767;DHT22;15921;52.034;20.650;2023-04-03T11:14:10;6.80;66.00
28767;DHT22;15921;52.034;20.650;2023-04-03T11:16:45;7.20;64.90
28767;DHT22;15921;52.034;20.650;2023-04-03T11:19:20;7.30;62.50
28767;DHT22;15921;52.034;20.650;2023-04-03T11:28:02;7.20;61.70
28767;DHT22;15921;52.034;20.650;2023-04-03T11:33:51;7.80;62.70
28767;DHT22;15921;52.034;20.650;2023-04-03T11:38:57;7.90;61.10
28767;DHT22;15921;52.034;20.650;2023-04-03T11:41:30;8.00;62.50
28767;DHT22;15921;52.034;20.650;2023-04-03T11:43:57;8.50;61.20
28767;DHT22;15921;52.034;20.650;2023-04-03T11:46:49;8.50;57.20
28767;DHT22;15921;52.034;20.650;2023-04-03T12:00:59;7.90;60.20
28767;DHT22;15921;52.034;20.650;2023-04-03T12:16:29;8.90;56.80
28767;DHT22;15921;52.034;20.650;2023-04-03T12:29:40;14.50;48.40
28767;DHT22;15921;52.034;20.650;2023-04-03T12:32:19;17.20;44.80
28767;DHT22;15921;52.034;20.650;2023-04-03T12:35:10;19.10;39.80
28767;DHT22;15921;52.034;20.650;2023-04-03T12:40:50;20.00;38.20
28767;DHT22;15921;52.034;20.650;2023-04-03T12:48:52;15.80;41.30
28767;DHT22;15921;52.034;20.650;2023-04-03T12:51:37;15.00;41.80
28767;DHT22;15921;52.034;20.650;2023-04-03T12:56:38;15.10;41.50
28767;DHT22;15921;52.034;20.650;2023-04-03T12:59:22;15.90;40.40
28767;DHT22;15921;52.034;20.650;2023-04-03T13:02:01;14.90;41.60
28767;DHT22;15921;52.034;20.650;2023-04-03T13:04:28;13.30;43.30
28767;DHT22;15921;52.034;20.650;2023-04-03T13:06:55;12.00;45.20
28767;DHT22;15921;52.034;20.650;2023-04-03T13:11:49;16.80;41.60
28767;DHT22;15921;52.034;20.650;2023-04-03T13:14:23;20.20;38.00
28767;DHT22;15921;52.034;20.650;2023-04-03T13:19:19;17.60;36.60
28767;DHT22;15921;52.034;20.650;2023-04-03T13:21:46;15.40;39.40
28767;DHT22;15921;52.034;20.650;2023-04-03T13:24:12;13.90;42.20
28767;DHT22;15921;52.034;20.650;2023-04-03T13:26:39;13.90;42.90
28767;DHT22;15921;52.034;20.650;2023-04-03T13:29:15;14.30;42.20
28767;DHT22;15921;52.034;20.650;2023-04-03T13:31:42;13.20;43.30
28767;DHT22;15921;52.034;20.650;2023-04-03T13:34:15;14.60;44.60
28767;DHT22;15921;52.034;20.650;2023-04-03T13:36:50;18.00;38.80
28767;DHT22;15921;52.034;20.650;2023-04-03T13:39:35;16.90;38.30
28767;DHT22;15921;52.034;20.650;2023-04-03T13:42:17;14.50;40.10
28767;DHT22;15921;52.034;20.650;2023-04-03T13:44:47;12.50;42.70
28767;DHT22;15921;52.034;20.650;2023-04-03T13:47:17;12.10;44.50
28767;DHT22;15921;52.034;20.650;2023-04-03T13:50:18;13.00;44.20
28767;DHT22;15921;52.034;20.650;2023-04-03T13:52:53;14.60;40.30
28767;DHT22;15921;52.034;20.650;2023-04-03T13:55:30;13.40;41.70
28767;DHT22;15921;52.034;20.650;2023-04-03T13:57:59;12.20;43.50
28767;DHT22;15921;52.034;20.650;2023-04-03T14:03:00;11.50;45.20
28767;DHT22;15921;52.034;20.650;2023-04-03T14:05:26;11.40;46.10
28767;DHT22;15921;52.034;20.650;2023-04-03T14:07:54;11.40;46.20
28767;DHT22;15921;52.034;20.650;2023-04-03T14:10:20;12.60;45.20
28767;DHT22;15921;52.034;20.650;2023-04-03T14:12:46;12.00;43.80
28767;DHT22;15921;52.034;20.650;2023-04-03T14:15:32;11.20;45.20
28767;DHT22;15921;52.034;20.650;2023-04-03T14:17:58;10.40;46.00
28767;DHT22;15921;52.034;20.650;2023-04-03T14:20:26;9.80;47.30
28767;DHT22;15921;52.034;20.650;2023-04-03T14:22:53;9.20;48.40
28767;DHT22;15921;52.034;20.650;2023-04-03T14:25:20;8.50;49.50
28767;DHT22;15921;52.034;20.650;2023-04-03T14:27:49;8.10;51.10
28767;DHT22;15921;52.034;20.650;2023-04-03T14:30:26;7.90;52.20
28767;DHT22;15921;52.034;20.650;2023-04-03T14:32:52;7.80;52.10
28767;DHT22;15921;52.034;20.650;2023-04-03T14:35:19;7.60;53.00
28767;DHT22;15921;52.034;20.650;2023-04-03T14:37:46;7.80;53.70
28767;DHT22;15921;52.034;20.650;2023-04-03T14:40:23;7.70;53.10
28767;DHT22;15921;52.034;20.650;2023-04-03T14:42:49;7.70;53.30
28767;DHT22;15921;52.034;20.650;2023-04-03T14:45:17;7.60;53.20
28767;DHT22;15921;52.034;20.650;2023-04-03T14:47:52;7.60;54.00
28767;DHT22;15921;52.034;20.650;2023-04-03T14:50:21;7.90;53.60
28767;DHT22;15921;52.034;20.650;2023-04-03T14:52:48;7.80;53.00
28767;DHT22;15921;52.034;20.650;2023-04-03T14:55:15;7.40;53.00
28767;DHT22;15921;52.034;20.650;2023-04-03T14:57:41;7.20;53.80
28767;DHT22;15921;52.034;20.650;2023-04-03T15:00:13;7.00;53.90
28767;DHT22;15921;52.034;20.650;2023-04-03T15:02:39;6.90;54.80
28767;DHT22;15921;52.034;20.650;2023-04-03T15:05:08;6.70;55.30
28767;DHT22;15921;52.034;20.650;2023-04-03T15:07:36;6.60;55.30
28767;DHT22;15921;52.034;20.650;2023-04-03T15:10:17;6.50;55.40
28767;DHT22;15921;52.034;20.650;2023-04-03T15:12:44;6.50;55.60
28767;DHT22;15921;52.034;20.650;2023-04-03T15:15:10;6.60;56.00
28767;DHT22;15921;52.034;20.650;2023-04-03T15:17:36;6.60;56.40
28767;DHT22;15921;52.034;20.650;2023-04-03T15:20:05;6.60;56.30
28767;DHT22;15921;52.034;20.650;2023-04-03T15:22:36;6.60;56.40
28767;DHT22;15921;52.034;20.650;2023-04-03T15:25:01;6.60;56.40
28767;DHT22;15921;52.034;20.650;2023-04-03T15:27:28;6.50;55.90
28767;DHT22;15921;52.034;20.650;2023-04-03T15:29:54;6.40;57.00
28767;DHT22;15921;52.034;20.650;2023-04-03T15:32:20;6.50;57.10
28767;DHT22;15921;52.034;20.650;2023-04-03T15:34:45;6.40;56.80
28767;DHT22;15921;52.034;20.650;2023-04-03T15:37:11;6.30;56.80
28767;DHT22;15921;52.034;20.650;2023-04-03T15:39:37;6.20;56.90
28767;DHT22;15921;52.034;20.650;2023-04-03T15:42:03;6.10;57.10
28767;DHT22;15921;52.034;20.650;2023-04-03T15:44:32;6.10;57.10
28767;DHT22;15921;52.034;20.650;2023-04-03T15:46:59;6.00;57.60
28767;DHT22;15921;52.034;20.650;2023-04-03T15:49:26;5.90;57.60
28767;DHT22;15921;52.034;20.650;2023-04-03T15:51:52;5.90;58.00
28767;DHT22;15921;52.034;20.650;2023-04-03T15:54:18;5.70;58.00
28767;DHT22;15921;52.034;20.650;2023-04-03T15:56:44;5.60;58.20
28767;DHT22;15921;52.034;20.650;2023-04-03T15:59:10;5.50;58.70
28767;DHT22;15921;52.034;20.650;2023-04-03T16:01:37;5.60;59.30
28767;DHT22;15921;52.034;20.650;2023-04-03T16:04:05;5.50;59.50
28767;DHT22;15921;52.034;20.650;2023-04-03T16:06:32;5.50;59.60
28767;DHT22;15921;52.034;20.650;2023-04-03T16:08:59;5.40;59.70
28767;DHT22;15921;52.034;20.650;2023-04-03T16:11:26;5.30;60.00
28767;DHT22;15921;52.034;20.650;2023-04-03T16:13:52;5.30;59.50
28767;DHT22;15921;52.034;20.650;2023-04-03T16:16:18;5.30;60.00
28767;DHT22;15921;52.034;20.650;2023-04-03T16:18:43;5.20;60.00
28767;DHT22;15921;52.034;20.650;2023-04-03T16:21:09;5.20;60.20
28767;DHT22;15921;52.034;20.650;2023-04-03T16:23:35;5.20;60.50
28767;DHT22;15921;52.034;20.650;2023-04-03T16:26:01;5.20;60.50
28767;DHT22;15921;52.034;20.650;2023-04-03T16:28:27;5.20;60.40
28767;DHT22;15921;52.034;20.650;2023-04-03T16:30:53;5.10;60.40
28767;DHT22;15921;52.034;20.650;2023-04-03T16:33:18;5.10;60.70
28767;DHT22;15921;52.034;20.650;2023-04-03T16:35:47;5.10;61.00
28767;DHT22;15921;52.034;20.650;2023-04-03T16:38:14;5.10;61.40
28767;DHT22;15921;52.034;20.650;2023-04-03T16:40:40;5.00;61.30
28767;DHT22;15921;52.034;20.650;2023-04-03T16:43:06;5.00;61.60
28767;DHT22;15921;52.034;20.650;2023-04-03T16:45:32;5.00;61.90
28767;DHT22;15921;52.034;20.650;2023-04-03T16:47:58;5.00;62.30
28767;DHT22;15921;52.034;20.650;2023-04-03T16:50:23;4.90;62.10
28767;DHT22;15921;52.034;20.650;2023-04-03T16:52:49;4.80;61.70
28767;DHT22;15921;52.034;20.650;2023-04-03T16:55:15;4.80;62.20
28767;DHT22;15921;52.034;20.650;2023-04-03T16:57:40;4.70;62.40
28767;DHT22;15921;52.034;20.650;2023-04-03T17:00:07;4.60;63.10
28767;DHT22;15921;52.034;20.650;2023-04-03T17:02:33;4.70;63.30
28767;DHT22;15921;52.034;20.650;2023-04-03T17:04:59;4.60;62.60
28767;DHT22;15921;52.034;20.650;2023-04-03T17:07:25;4.50;63.00
28767;DHT22;15921;52.034;20.650;2023-04-03T17:09:51;4.50;63.00
28767;DHT22;15921;52.034;20.650;2023-04-03T17:12:19;4.50;62.40
28767;DHT22;15921;52.034;20.650;2023-04-03T17:14:45;4.50;62.40
28767;DHT22;15921;52.034;20.650;2023-04-03T17:17:13;4.50;62.50
28767;DHT22;15921;52.034;20.650;2023-04-03T17:19:39;4.40;62.70
28767;DHT22;15921;52.034;20.650;2023-04-03T17:22:07;4.40;63.10
28767;DHT22;15921;52.034;20.650;2023-04-03T17:24:34;4.40;63.30
28767;DHT22;15921;52.034;20.650;2023-04-03T17:27:01;4.40;63.30
28767;DHT22;15921;52.034;20.650;2023-04-03T17:29:27;4.30;63.60
28767;DHT22;15921;52.034;20.650;2023-04-03T17:31:53;4.30;63.90